Mauterndorf, Austria
Current Conditions -  °F | °C
As of 1:20 PM on Thursday 23 Oct 2014 (Local Time) from LOWK Reporting Station
Rain Showers Rain Showers  
Wind Chill: 46°   Ceiling: 6500
Heat Index: 46°   Visibility: 6mi
Dew Point: 41°   Wind: 3mph
Humidity: 81%   Direction: 310°NW
Pressure: 29.83"   Gusts: NA
Location:  47.13°N, 13.68°E
Report Text: LOWK 231220Z 31003KT 190V340 9999 -SHRA FEW046 BKN065 08/05 Q1010 TEMPO 36010G20KT
Loading
Personal Weather Stations






























Interactive Weather Map
Tropical Storm Tracking
New forecast layout! Learn more

10-Day Weather Forecast

Advertisements
Track Severe Weather on mobile